sensor_id;sensor_type;location;lat;lon;timestamp;P1;durP1;ratioP1;P2;durP2;ratioP2
70008;SDS011;59542;37.950;-122.338;2022-08-19T00:01:46;2.28;;;1.45;;
70008;SDS011;59542;37.950;-122.338;2022-08-19T00:04:15;3.65;;;1.40;;
70008;SDS011;59542;37.950;-122.338;2022-08-19T00:06:43;6.70;;;2.13;;
70008;SDS011;59542;37.950;-122.338;2022-08-19T00:09:11;4.13;;;1.60;;
70008;SDS011;59542;37.950;-122.338;2022-08-19T00:11:39;3.58;;;1.65;;
70008;SDS011;59542;37.950;-122.338;2022-08-19T00:14:07;3.80;;;1.67;;
70008;SDS011;59542;37.950;-122.338;2022-08-19T00:16:35;4.55;;;1.63;;
70008;SDS011;59542;37.950;-122.338;2022-08-19T00:19:04;4.85;;;1.92;;
70008;SDS011;59542;37.950;-122.338;2022-08-19T00:21:30;3.65;;;2.08;;
70008;SDS011;59542;37.950;-122.338;2022-08-19T00:23:57;2.67;;;1.50;;
70008;SDS011;59542;37.950;-122.338;2022-08-19T00:26:24;3.92;;;1.60;;
70008;SDS011;59542;37.950;-122.338;2022-08-19T00:28:51;5.43;;;1.88;;
70008;SDS011;59542;37.950;-122.338;2022-08-19T00:31:17;2.05;;;1.40;;
70008;SDS011;59542;37.950;-122.338;2022-08-19T00:33:44;5.50;;;1.88;;
70008;SDS011;59542;37.950;-122.338;2022-08-19T00:36:10;4.50;;;1.60;;
70008;SDS011;59542;37.950;-122.338;2022-08-19T00:38:37;3.97;;;1.58;;
70008;SDS011;59542;37.950;-122.338;2022-08-19T00:41:08;2.85;;;1.90;;
70008;SDS011;59542;37.950;-122.338;2022-08-19T00:44:04;3.70;;;2.40;;
70008;SDS011;59542;37.950;-122.338;2022-08-19T00:46:30;4.50;;;1.75;;
70008;SDS011;59542;37.950;-122.338;2022-08-19T00:48:58;3.88;;;1.67;;
70008;SDS011;59542;37.950;-122.338;2022-08-19T00:51:26;6.00;;;2.08;;
70008;SDS011;59542;37.950;-122.338;2022-08-19T00:53:55;4.60;;;2.10;;
70008;SDS011;59542;37.950;-122.338;2022-08-19T00:56:23;4.13;;;1.90;;
70008;SDS011;59542;37.950;-122.338;2022-08-19T00:58:52;3.85;;;2.03;;
70008;SDS011;59542;37.950;-122.338;2022-08-19T01:01:21;5.65;;;2.03;;
70008;SDS011;59542;37.950;-122.338;2022-08-19T01:03:47;6.88;;;2.53;;
70008;SDS011;59542;37.950;-122.338;2022-08-19T01:06:13;6.75;;;2.88;;
70008;SDS011;59542;37.950;-122.338;2022-08-19T01:08:40;5.50;;;2.65;;
70008;SDS011;59542;37.950;-122.338;2022-08-19T01:11:06;5.85;;;2.83;;
70008;SDS011;59542;37.950;-122.338;2022-08-19T01:13:33;9.43;;;2.97;;
70008;SDS011;59542;37.950;-122.338;2022-08-19T01:16:02;6.20;;;3.08;;
70008;SDS011;59542;37.950;-122.338;2022-08-19T01:18:32;10.80;;;3.22;;
70008;SDS011;59542;37.950;-122.338;2022-08-19T01:21:27;8.05;;;3.67;;
70008;SDS011;59542;37.950;-122.338;2022-08-19T01:23:50;9.18;;;3.60;;
70008;SDS011;59542;37.950;-122.338;2022-08-19T01:26:18;9.93;;;3.33;;
70008;SDS011;59542;37.950;-122.338;2022-08-19T01:28:47;6.07;;;3.60;;
70008;SDS011;59542;37.950;-122.338;2022-08-19T01:31:17;7.75;;;3.80;;
70008;SDS011;59542;37.950;-122.338;2022-08-19T01:33:47;7.60;;;3.78;;
70008;SDS011;59542;37.950;-122.338;2022-08-19T01:36:16;8.73;;;4.28;;
70008;SDS011;59542;37.950;-122.338;2022-08-19T01:38:53;8.65;;;3.67;;
70008;SDS011;59542;37.950;-122.338;2022-08-19T01:41:21;9.77;;;4.18;;
70008;SDS011;59542;37.950;-122.338;2022-08-19T01:43:49;9.57;;;3.97;;
70008;SDS011;59542;37.950;-122.338;2022-08-19T01:46:17;4.43;;;3.55;;
70008;SDS011;59542;37.950;-122.338;2022-08-19T01:48:43;6.70;;;3.83;;
70008;SDS011;59542;37.950;-122.338;2022-08-19T01:51:11;7.72;;;3.63;;
70008;SDS011;59542;37.950;-122.338;2022-08-19T01:53:38;8.35;;;3.30;;
70008;SDS011;59542;37.950;-122.338;2022-08-19T01:56:04;8.32;;;3.00;;
70008;SDS011;59542;37.950;-122.338;2022-08-19T01:58:32;12.43;;;3.17;;
70008;SDS011;59542;37.950;-122.338;2022-08-19T02:01:06;7.65;;;2.33;;
70008;SDS011;59542;37.950;-122.338;2022-08-19T02:03:33;4.65;;;2.72;;
70008;SDS011;59542;37.950;-122.338;2022-08-19T02:06:02;5.18;;;2.35;;
70008;SDS011;59542;37.950;-122.338;2022-08-19T02:08:30;3.83;;;2.50;;
70008;SDS011;59542;37.950;-122.338;2022-08-19T02:10:58;5.88;;;2.38;;
70008;SDS011;59542;37.950;-122.338;2022-08-19T02:13:24;6.53;;;2.22;;
70008;SDS011;59542;37.950;-122.338;2022-08-19T02:15:51;3.92;;;2.17;;
70008;SDS011;59542;37.950;-122.338;2022-08-19T02:18:17;5.70;;;2.67;;
70008;SDS011;59542;37.950;-122.338;2022-08-19T02:20:44;6.45;;;2.22;;
70008;SDS011;59542;37.950;-122.338;2022-08-19T02:23:13;6.75;;;2.40;;
70008;SDS011;59542;37.950;-122.338;2022-08-19T02:25:40;8.55;;;2.70;;
70008;SDS011;59542;37.950;-122.338;2022-08-19T02:28:07;4.78;;;2.00;;
70008;SDS011;59542;37.950;-122.338;2022-08-19T02:30:33;5.35;;;2.45;;
70008;SDS011;59542;37.950;-122.338;2022-08-19T02:33:00;12.43;;;3.17;;
70008;SDS011;59542;37.950;-122.338;2022-08-19T02:35:26;6.18;;;2.70;;
70008;SDS011;59542;37.950;-122.338;2022-08-19T02:37:52;4.97;;;2.03;;
70008;SDS011;59542;37.950;-122.338;2022-08-19T02:40:37;6.95;;;2.30;;
70008;SDS011;59542;37.950;-122.338;2022-08-19T02:43:04;5.97;;;2.45;;
70008;SDS011;59542;37.950;-122.338;2022-08-19T02:45:36;4.00;;;2.20;;
70008;SDS011;59542;37.950;-122.338;2022-08-19T02:48:07;7.88;;;2.70;;
70008;SDS011;59542;37.950;-122.338;2022-08-19T02:50:37;9.07;;;2.40;;
70008;SDS011;59542;37.950;-122.338;2022-08-19T02:53:05;6.13;;;2.47;;
70008;SDS011;59542;37.950;-122.338;2022-08-19T02:55:33;5.55;;;2.38;;
70008;SDS011;59542;37.950;-122.338;2022-08-19T02:58:00;8.20;;;2.75;;
70008;SDS011;59542;37.950;-122.338;2022-08-19T03:00:26;7.05;;;2.83;;
70008;SDS011;59542;37.950;-122.338;2022-08-19T03:02:53;3.97;;;2.15;;
70008;SDS011;59542;37.950;-122.338;2022-08-19T03:05:19;4.80;;;2.20;;
70008;SDS011;59542;37.950;-122.338;2022-08-19T03:07:52;5.43;;;2.22;;
70008;SDS011;59542;37.950;-122.338;2022-08-19T03:10:18;2.55;;;2.15;;
70008;SDS011;59542;37.950;-122.338;2022-08-19T03:12:45;3.75;;;2.20;;
70008;SDS011;59542;37.950;-122.338;2022-08-19T03:15:11;7.95;;;2.47;;
70008;SDS011;59542;37.950;-122.338;2022-08-19T03:17:38;4.63;;;2.22;;
70008;SDS011;59542;37.950;-122.338;2022-08-19T03:20:09;4.75;;;2.30;;
70008;SDS011;59542;37.950;-122.338;2022-08-19T03:22:36;5.38;;;2.38;;
70008;SDS011;59542;37.950;-122.338;2022-08-19T03:25:02;4.45;;;2.65;;
70008;SDS011;59542;37.950;-122.338;2022-08-19T03:27:29;4.63;;;2.10;;
70008;SDS011;59542;37.950;-122.338;2022-08-19T03:29:55;4.82;;;2.10;;
70008;SDS011;59542;37.950;-122.338;2022-08-19T03:32:21;2.28;;;1.92;;
70008;SDS011;59542;37.950;-122.338;2022-08-19T03:34:48;4.82;;;2.30;;
70008;SDS011;59542;37.950;-122.338;2022-08-19T03:37:16;5.63;;;2.95;;
70008;SDS011;59542;37.950;-122.338;2022-08-19T03:39:42;6.35;;;2.92;;
70008;SDS011;59542;37.950;-122.338;2022-08-19T03:42:08;8.52;;;2.60;;
70008;SDS011;59542;37.950;-122.338;2022-08-19T03:44:35;7.57;;;3.10;;
70008;SDS011;59542;37.950;-122.338;2022-08-19T03:47:03;4.30;;;2.35;;
70008;SDS011;59542;37.950;-122.338;2022-08-19T03:49:30;4.57;;;2.47;;
70008;SDS011;59542;37.950;-122.338;2022-08-19T03:52:00;5.25;;;2.88;;
70008;SDS011;59542;37.950;-122.338;2022-08-19T03:54:27;5.80;;;2.60;;
70008;SDS011;59542;37.950;-122.338;2022-08-19T03:56:54;5.80;;;2.80;;
70008;SDS011;59542;37.950;-122.338;2022-08-19T03:59:28;6.22;;;3.03;;
70008;SDS011;59542;37.950;-122.338;2022-08-19T04:01:58;4.38;;;2.67;;
70008;SDS011;59542;37.950;-122.338;2022-08-19T04:04:27;6.65;;;3.05;;
70008;SDS011;59542;37.950;-122.338;2022-08-19T04:06:54;5.28;;;3.10;;
70008;SDS011;59542;37.950;-122.338;2022-08-19T04:09:21;4.85;;;2.45;;
70008;SDS011;59542;37.950;-122.338;2022-08-19T04:11:49;4.35;;;2.88;;
70008;SDS011;59542;37.950;-122.338;2022-08-19T04:14:20;3.85;;;2.50;;
70008;SDS011;59542;37.950;-122.338;2022-08-19T04:16:51;4.03;;;2.75;;
70008;SDS011;59542;37.950;-122.338;2022-08-19T04:19:18;4.97;;;3.45;;
70008;SDS011;59542;37.950;-122.338;2022-08-19T04:21:46;7.82;;;3.38;;
70008;SDS011;59542;37.950;-122.338;2022-08-19T04:24:15;4.72;;;3.25;;
70008;SDS011;59542;37.950;-122.338;2022-08-19T04:26:42;4.57;;;3.13;;
70008;SDS011;59542;37.950;-122.338;2022-08-19T04:29:17;10.50;;;3.00;;
70008;SDS011;59542;37.950;-122.338;2022-08-19T04:31:50;4.05;;;2.63;;
70008;SDS011;59542;37.950;-122.338;2022-08-19T04:34:18;4.57;;;3.15;;
70008;SDS011;59542;37.950;-122.338;2022-08-19T04:36:51;4.63;;;3.10;;
70008;SDS011;59542;37.950;-122.338;2022-08-19T04:39:19;4.32;;;3.15;;
70008;SDS011;59542;37.950;-122.338;2022-08-19T04:41:48;7.35;;;2.92;;
70008;SDS011;59542;37.950;-122.338;2022-08-19T04:44:34;4.82;;;3.00;;
70008;SDS011;59542;37.950;-122.338;2022-08-19T04:47:01;6.32;;;3.47;;
70008;SDS011;59542;37.950;-122.338;2022-08-19T04:49:30;4.60;;;2.88;;
70008;SDS011;59542;37.950;-122.338;2022-08-19T04:51:56;3.72;;;2.88;;
70008;SDS011;59542;37.950;-122.338;2022-08-19T04:54:23;5.65;;;2.90;;
70008;SDS011;59542;37.950;-122.338;2022-08-19T04:56:51;8.77;;;2.53;;
70008;SDS011;59542;37.950;-122.338;2022-08-19T04:59:19;4.85;;;2.72;;
70008;SDS011;59542;37.950;-122.338;2022-08-19T05:01:46;5.97;;;2.95;;
70008;SDS011;59542;37.950;-122.338;2022-08-19T05:04:15;3.55;;;2.35;;
70008;SDS011;59542;37.950;-122.338;2022-08-19T05:06:44;5.10;;;2.60;;
70008;SDS011;59542;37.950;-122.338;2022-08-19T05:09:12;4.40;;;2.22;;
70008;SDS011;59542;37.950;-122.338;2022-08-19T05:11:39;6.13;;;2.47;;
70008;SDS011;59542;37.950;-122.338;2022-08-19T05:14:06;6.53;;;2.33;;
70008;SDS011;59542;37.950;-122.338;2022-08-19T05:16:33;4.43;;;2.25;;
70008;SDS011;59542;37.950;-122.338;2022-08-19T05:18:59;3.88;;;2.20;;
70008;SDS011;59542;37.950;-122.338;2022-08-19T05:21:44;5.15;;;2.60;;
70008;SDS011;59542;37.950;-122.338;2022-08-19T05:24:28;4.72;;;2.40;;
70008;SDS011;59542;37.950;-122.338;2022-08-19T05:26:55;4.40;;;2.60;;
70008;SDS011;59542;37.950;-122.338;2022-08-19T05:29:22;3.55;;;2.47;;
70008;SDS011;59542;37.950;-122.338;2022-08-19T05:31:50;4.45;;;2.53;;
70008;SDS011;59542;37.950;-122.338;2022-08-19T05:34:19;4.38;;;2.88;;
70008;SDS011;59542;37.950;-122.338;2022-08-19T05:36:47;6.78;;;3.60;;
70008;SDS011;59542;37.950;-122.338;2022-08-19T05:39:16;4.57;;;3.70;;
70008;SDS011;59542;37.950;-122.338;2022-08-19T05:41:45;7.45;;;4.57;;
70008;SDS011;59542;37.950;-122.338;2022-08-19T05:44:12;5.15;;;4.05;;
70008;SDS011;59542;37.950;-122.338;2022-08-19T05:46:39;7.43;;;4.78;;
70008;SDS011;59542;37.950;-122.338;2022-08-19T05:49:08;4.90;;;4.15;;
70008;SDS011;59542;37.950;-122.338;2022-08-19T05:51:35;5.07;;;3.50;;
70008;SDS011;59542;37.950;-122.338;2022-08-19T05:54:03;5.80;;;3.78;;
70008;SDS011;59542;37.950;-122.338;2022-08-19T05:56:31;4.05;;;2.65;;
70008;SDS011;59542;37.950;-122.338;2022-08-19T05:59:01;5.60;;;1.95;;
70008;SDS011;59542;37.950;-122.338;2022-08-19T06:01:29;6.78;;;3.25;;
70008;SDS011;59542;37.950;-122.338;2022-08-19T06:03:55;4.78;;;2.15;;
70008;SDS011;59542;37.950;-122.338;2022-08-19T06:06:21;3.03;;;2.25;;
70008;SDS011;59542;37.950;-122.338;2022-08-19T06:08:47;3.85;;;2.38;;
70008;SDS011;59542;37.950;-122.338;2022-08-19T06:11:20;4.60;;;2.05;;
70008;SDS011;59542;37.950;-122.338;2022-08-19T06:13:50;3.92;;;2.65;;
70008;SDS011;59542;37.950;-122.338;2022-08-19T06:16:21;3.47;;;2.20;;
70008;SDS011;59542;37.950;-122.338;2022-08-19T06:18:51;2.83;;;2.03;;
70008;SDS011;59542;37.950;-122.338;2022-08-19T06:21:19;5.55;;;2.20;;
70008;SDS011;59542;37.950;-122.338;2022-08-19T06:23:47;3.40;;;2.28;;
70008;SDS011;59542;37.950;-122.338;2022-08-19T06:26:15;3.58;;;2.17;;
70008;SDS011;59542;37.950;-122.338;2022-08-19T06:28:42;3.83;;;2.10;;
70008;SDS011;59542;37.950;-122.338;2022-08-19T06:31:12;3.65;;;1.92;;
70008;SDS011;59542;37.950;-122.338;2022-08-19T06:33:41;2.47;;;1.92;;
70008;SDS011;59542;37.950;-122.338;2022-08-19T06:36:22;3.63;;;2.47;;
70008;SDS011;59542;37.950;-122.338;2022-08-19T06:38:55;3.47;;;1.65;;
70008;SDS011;59542;37.950;-122.338;2022-08-19T06:41:25;1.85;;;1.42;;
70008;SDS011;59542;37.950;-122.338;2022-08-19T06:43:52;2.53;;;1.92;;
70008;SDS011;59542;37.950;-122.338;2022-08-19T06:46:19;2.88;;;1.80;;
70008;SDS011;59542;37.950;-122.338;2022-08-19T06:48:46;2.90;;;2.38;;
70008;SDS011;59542;37.950;-122.338;2022-08-19T06:51:14;2.13;;;1.92;;
70008;SDS011;59542;37.950;-122.338;2022-08-19T06:53:47;3.15;;;2.08;;
70008;SDS011;59542;37.950;-122.338;2022-08-19T06:56:16;2.63;;;2.00;;
70008;SDS011;59542;37.950;-122.338;2022-08-19T06:58:43;2.47;;;1.77;;
70008;SDS011;59542;37.950;-122.338;2022-08-19T07:01:10;4.10;;;1.80;;
70008;SDS011;59542;37.950;-122.338;2022-08-19T07:03:37;3.85;;;2.45;;
70008;SDS011;59542;37.950;-122.338;2022-08-19T07:06:08;3.22;;;2.42;;
70008;SDS011;59542;37.950;-122.338;2022-08-19T07:08:38;4.70;;;2.97;;
70008;SDS011;59542;37.950;-122.338;2022-08-19T07:11:08;5.55;;;2.75;;
70008;SDS011;59542;37.950;-122.338;2022-08-19T07:13:36;3.28;;;2.10;;
70008;SDS011;59542;37.950;-122.338;2022-08-19T07:16:07;4.18;;;2.05;;
70008;SDS011;59542;37.950;-122.338;2022-08-19T07:18:34;2.25;;;1.50;;
70008;SDS011;59542;37.950;-122.338;2022-08-19T07:21:04;2.20;;;1.60;;
70008;SDS011;59542;37.950;-122.338;2022-08-19T07:23:32;2.47;;;1.52;;
70008;SDS011;59542;37.950;-122.338;2022-08-19T07:26:03;3.67;;;1.65;;
70008;SDS011;59542;37.950;-122.338;2022-08-19T07:28:33;1.90;;;1.30;;
70008;SDS011;59542;37.950;-122.338;2022-08-19T07:30:59;2.08;;;1.42;;
70008;SDS011;59542;37.950;-122.338;2022-08-19T07:33:27;2.47;;;1.15;;
70008;SDS011;59542;37.950;-122.338;2022-08-19T07:35:55;4.43;;;1.63;;
70008;SDS011;59542;37.950;-122.338;2022-08-19T07:38:21;4.68;;;2.45;;
70008;SDS011;59542;37.950;-122.338;2022-08-19T07:40:47;3.22;;;2.33;;
70008;SDS011;59542;37.950;-122.338;2022-08-19T07:43:14;3.47;;;2.42;;
70008;SDS011;59542;37.950;-122.338;2022-08-19T07:45:40;2.67;;;1.90;;
70008;SDS011;59542;37.950;-122.338;2022-08-19T07:48:07;2.88;;;2.42;;
70008;SDS011;59542;37.950;-122.338;2022-08-19T07:50:33;3.47;;;2.30;;
70008;SDS011;59542;37.950;-122.338;2022-08-19T07:52:59;3.38;;;2.47;;
70008;SDS011;59542;37.950;-122.338;2022-08-19T07:55:26;4.00;;;1.77;;
70008;SDS011;59542;37.950;-122.338;2022-08-19T07:57:52;3.55;;;1.50;;
70008;SDS011;59542;37.950;-122.338;2022-08-19T08:00:18;3.25;;;1.50;;
70008;SDS011;59542;37.950;-122.338;2022-08-19T08:02:45;2.03;;;1.25;;
70008;SDS011;59542;37.950;-122.338;2022-08-19T08:05:11;1.95;;;1.10;;
70008;SDS011;59542;37.950;-122.338;2022-08-19T08:07:55;3.33;;;1.40;;
70008;SDS011;59542;37.950;-122.338;2022-08-19T08:10:40;2.58;;;1.23;;
70008;SDS011;59542;37.950;-122.338;2022-08-19T08:13:07;2.15;;;1.15;;
70008;SDS011;59542;37.950;-122.338;2022-08-19T08:15:33;2.60;;;0.95;;
70008;SDS011;59542;37.950;-122.338;2022-08-19T08:18:02;1.63;;;0.80;;
70008;SDS011;59542;37.950;-122.338;2022-08-19T08:20:28;1.85;;;1.30;;
70008;SDS011;59542;37.950;-122.338;2022-08-19T08:22:54;2.70;;;1.30;;
70008;SDS011;59542;37.950;-122.338;2022-08-19T08:25:39;2.80;;;1.13;;
70008;SDS011;59542;37.950;-122.338;2022-08-19T08:28:05;2.72;;;1.48;;
70008;SDS011;59542;37.950;-122.338;2022-08-19T08:30:32;1.98;;;1.10;;
70008;SDS011;59542;37.950;-122.338;2022-08-19T08:33:01;2.75;;;1.45;;
70008;SDS011;59542;37.950;-122.338;2022-08-19T08:35:27;2.63;;;1.38;;
70008;SDS011;59542;37.950;-122.338;2022-08-19T08:37:53;1.95;;;1.40;;
70008;SDS011;59542;37.950;-122.338;2022-08-19T08:46:13;3.92;;;1.50;;
70008;SDS011;59542;37.950;-122.338;2022-08-19T08:49:03;1.85;;;1.25;;
70008;SDS011;59542;37.950;-122.338;2022-08-19T08:51:45;2.13;;;1.42;;
70008;SDS011;59542;37.950;-122.338;2022-08-19T08:54:17;2.33;;;1.30;;
70008;SDS011;59542;37.950;-122.338;2022-08-19T08:56:45;2.30;;;1.45;;
70008;SDS011;59542;37.950;-122.338;2022-08-19T08:59:21;2.22;;;1.30;;
70008;SDS011;59542;37.950;-122.338;2022-08-19T09:01:50;3.33;;;1.27;;
70008;SDS011;59542;37.950;-122.338;2022-08-19T09:04:17;1.52;;;1.30;;
70008;SDS011;59542;37.950;-122.338;2022-08-19T09:10:11;1.50;;;1.08;;
70008;SDS011;59542;37.950;-122.338;2022-08-19T09:12:14;2.60;;;1.23;;
70008;SDS011;59542;37.950;-122.338;2022-08-19T09:14:58;3.08;;;1.40;;
70008;SDS011;59542;37.950;-122.338;2022-08-19T09:17:29;3.13;;;1.63;;
70008;SDS011;59542;37.950;-122.338;2022-08-19T09:20:01;2.55;;;1.50;;
70008;SDS011;59542;37.950;-122.338;2022-08-19T09:22:34;1.83;;;1.00;;
70008;SDS011;59542;37.950;-122.338;2022-08-19T09:25:01;1.63;;;1.30;;
70008;SDS011;59542;37.950;-122.338;2022-08-19T09:27:28;2.75;;;1.27;;
70008;SDS011;59542;37.950;-122.338;2022-08-19T09:29:55;1.48;;;1.00;;
70008;SDS011;59542;37.950;-122.338;2022-08-19T09:32:21;4.10;;;1.52;;
70008;SDS011;59542;37.950;-122.338;2022-08-19T09:34:48;3.83;;;1.35;;
70008;SDS011;59542;37.950;-122.338;2022-08-19T09:37:15;1.70;;;1.10;;
70008;SDS011;59542;37.950;-122.338;2022-08-19T09:39:41;1.63;;;1.08;;
70008;SDS011;59542;37.950;-122.338;2022-08-19T09:42:07;2.30;;;1.10;;
70008;SDS011;59542;37.950;-122.338;2022-08-19T09:44:41;2.20;;;0.80;;
70008;SDS011;59542;37.950;-122.338;2022-08-19T09:47:08;1.45;;;1.20;;
70008;SDS011;59542;37.950;-122.338;2022-08-19T09:49:36;1.70;;;1.10;;
70008;SDS011;59542;37.950;-122.338;2022-08-19T09:52:04;2.40;;;1.35;;
70008;SDS011;59542;37.950;-122.338;2022-08-19T09:54:32;3.38;;;2.20;;
70008;SDS011;59542;37.950;-122.338;2022-08-19T09:56:59;3.33;;;2.30;;
70008;SDS011;59542;37.950;-122.338;2022-08-19T09:59:26;2.90;;;2.10;;
70008;SDS011;59542;37.950;-122.338;2022-08-19T10:01:53;2.55;;;2.33;;
70008;SDS011;59542;37.950;-122.338;2022-08-19T10:04:20;4.53;;;2.47;;
70008;SDS011;59542;37.950;-122.338;2022-08-19T10:06:47;3.42;;;2.30;;
70008;SDS011;59542;37.950;-122.338;2022-08-19T10:09:15;3.17;;;2.30;;
70008;SDS011;59542;37.950;-122.338;2022-08-19T10:11:43;2.08;;;1.65;;
70008;SDS011;59542;37.950;-122.338;2022-08-19T10:14:14;2.40;;;1.50;;
70008;SDS011;59542;37.950;-122.338;2022-08-19T10:16:41;2.10;;;1.33;;
70008;SDS011;59542;37.950;-122.338;2022-08-19T10:19:08;1.42;;;1.20;;
70008;SDS011;59542;37.950;-122.338;2022-08-19T10:21:35;1.80;;;1.30;;
70008;SDS011;59542;37.950;-122.338;2022-08-19T10:24:03;4.78;;;1.40;;
70008;SDS011;59542;37.950;-122.338;2022-08-19T10:26:31;1.27;;;1.13;;
70008;SDS011;59542;37.950;-122.338;2022-08-19T10:29:02;1.13;;;0.98;;
70008;SDS011;59542;37.950;-122.338;2022-08-19T10:31:31;2.13;;;1.45;;
70008;SDS011;59542;37.950;-122.338;2022-08-19T10:33:59;1.98;;;1.40;;
70008;SDS011;59542;37.950;-122.338;2022-08-19T10:36:27;5.10;;;2.10;;
70008;SDS011;59542;37.950;-122.338;2022-08-19T10:38:59;3.00;;;2.67;;
70008;SDS011;59542;37.950;-122.338;2022-08-19T10:41:29;2.80;;;2.17;;
70008;SDS011;59542;37.950;-122.338;2022-08-19T10:43:58;5.35;;;2.17;;
70008;SDS011;59542;37.950;-122.338;2022-08-19T10:46:32;3.22;;;2.50;;
70008;SDS011;59542;37.950;-122.338;2022-08-19T10:49:02;2.65;;;2.00;;
70008;SDS011;59542;37.950;-122.338;2022-08-19T10:51:30;2.80;;;1.80;;
70008;SDS011;59542;37.950;-122.338;2022-08-19T10:54:16;2.25;;;1.95;;
70008;SDS011;59542;37.950;-122.338;2022-08-19T10:56:43;3.97;;;2.28;;
70008;SDS011;59542;37.950;-122.338;2022-08-19T10:59:22;2.15;;;1.67;;
70008;SDS011;59542;37.950;-122.338;2022-08-19T11:01:53;2.03;;;1.70;;
70008;SDS011;59542;37.950;-122.338;2022-08-19T11:04:24;2.92;;;1.80;;
70008;SDS011;59542;37.950;-122.338;2022-08-19T11:06:50;3.70;;;1.77;;
70008;SDS011;59542;37.950;-122.338;2022-08-19T11:09:17;2.10;;;1.52;;
70008;SDS011;59542;37.950;-122.338;2022-08-19T11:11:52;4.75;;;2.00;;
70008;SDS011;59542;37.950;-122.338;2022-08-19T11:14:20;3.65;;;2.35;;
70008;SDS011;59542;37.950;-122.338;2022-08-19T11:16:47;3.25;;;1.90;;
70008;SDS011;59542;37.950;-122.338;2022-08-19T11:19:15;5.05;;;2.00;;
70008;SDS011;59542;37.950;-122.338;2022-08-19T11:21:45;4.85;;;2.42;;
70008;SDS011;59542;37.950;-122.338;2022-08-19T11:24:14;5.15;;;2.40;;
70008;SDS011;59542;37.950;-122.338;2022-08-19T11:26:43;4.15;;;2.42;;
70008;SDS011;59542;37.950;-122.338;2022-08-19T11:29:11;5.93;;;2.90;;
70008;SDS011;59542;37.950;-122.338;2022-08-19T11:31:39;4.72;;;2.72;;
70008;SDS011;59542;37.950;-122.338;2022-08-19T11:34:10;14.05;;;3.08;;
70008;SDS011;59542;37.950;-122.338;2022-08-19T11:36:40;5.13;;;2.30;;
70008;SDS011;59542;37.950;-122.338;2022-08-19T11:39:09;6.43;;;3.00;;
70008;SDS011;59542;37.950;-122.338;2022-08-19T11:41:37;5.85;;;2.25;;
70008;SDS011;59542;37.950;-122.338;2022-08-19T11:44:04;6.65;;;2.83;;
70008;SDS011;59542;37.950;-122.338;2022-08-19T11:46:33;5.35;;;2.40;;
70008;SDS011;59542;37.950;-122.338;2022-08-19T11:49:01;5.60;;;2.40;;
70008;SDS011;59542;37.950;-122.338;2022-08-19T11:51:30;4.35;;;2.60;;
70008;SDS011;59542;37.950;-122.338;2022-08-19T11:53:57;4.55;;;2.28;;
70008;SDS011;59542;37.950;-122.338;2022-08-19T11:56:25;3.20;;;2.10;;
70008;SDS011;59542;37.950;-122.338;2022-08-19T11:58:52;3.92;;;1.80;;
70008;SDS011;59542;37.950;-122.338;2022-08-19T12:01:20;4.95;;;1.80;;
70008;SDS011;59542;37.950;-122.338;2022-08-19T12:03:48;4.63;;;1.67;;
70008;SDS011;59542;37.950;-122.338;2022-08-19T12:06:17;5.53;;;2.50;;
70008;SDS011;59542;37.950;-122.338;2022-08-19T12:08:49;4.75;;;2.00;;
70008;SDS011;59542;37.950;-122.338;2022-08-19T12:11:15;4.00;;;2.00;;
70008;SDS011;59542;37.950;-122.338;2022-08-19T12:13:42;3.63;;;2.70;;
70008;SDS011;59542;37.950;-122.338;2022-08-19T12:16:12;7.03;;;2.42;;
70008;SDS011;59542;37.950;-122.338;2022-08-19T12:18:43;3.03;;;2.03;;
70008;SDS011;59542;37.950;-122.338;2022-08-19T12:21:14;4.97;;;2.75;;
70008;SDS011;59542;37.950;-122.338;2022-08-19T12:23:42;3.08;;;2.72;;
70008;SDS011;59542;37.950;-122.338;2022-08-19T12:26:10;4.00;;;2.63;;
70008;SDS011;59542;37.950;-122.338;2022-08-19T12:28:37;4.25;;;2.80;;
70008;SDS011;59542;37.950;-122.338;2022-08-19T12:31:04;5.70;;;2.88;;
70008;SDS011;59542;37.950;-122.338;2022-08-19T12:33:31;4.13;;;2.25;;
70008;SDS011;59542;37.950;-122.338;2022-08-19T12:36:00;4.18;;;1.98;;
70008;SDS011;59542;37.950;-122.338;2022-08-19T12:38:29;5.03;;;2.20;;
70008;SDS011;59542;37.950;-122.338;2022-08-19T12:40:55;3.05;;;1.77;;
70008;SDS011;59542;37.950;-122.338;2022-08-19T12:43:21;3.75;;;2.30;;
70008;SDS011;59542;37.950;-122.338;2022-08-19T12:45:48;4.45;;;2.38;;
70008;SDS011;59542;37.950;-122.338;2022-08-19T12:48:14;9.75;;;2.50;;
70008;SDS011;59542;37.950;-122.338;2022-08-19T12:50:41;4.85;;;2.10;;
70008;SDS011;59542;37.950;-122.338;2022-08-19T12:53:13;3.58;;;2.40;;
70008;SDS011;59542;37.950;-122.338;2022-08-19T12:55:40;4.57;;;2.20;;
70008;SDS011;59542;37.950;-122.338;2022-08-19T12:58:07;5.18;;;3.10;;
70008;SDS011;59542;37.950;-122.338;2022-08-19T13:00:34;4.30;;;2.80;;
70008;SDS011;59542;37.950;-122.338;2022-08-19T13:03:00;7.47;;;3.25;;
70008;SDS011;59542;37.950;-122.338;2022-08-19T13:05:28;4.97;;;3.03;;
70008;SDS011;59542;37.950;-122.338;2022-08-19T13:07:57;3.55;;;2.80;;
70008;SDS011;59542;37.950;-122.338;2022-08-19T13:10:34;3.70;;;2.20;;
70008;SDS011;59542;37.950;-122.338;2022-08-19T13:13:02;5.22;;;2.90;;
70008;SDS011;59542;37.950;-122.338;2022-08-19T13:15:34;4.95;;;3.15;;
70008;SDS011;59542;37.950;-122.338;2022-08-19T13:18:05;5.65;;;3.50;;
70008;SDS011;59542;37.950;-122.338;2022-08-19T13:20:34;3.10;;;2.53;;
70008;SDS011;59542;37.950;-122.338;2022-08-19T13:23:01;2.97;;;1.88;;
70008;SDS011;59542;37.950;-122.338;2022-08-19T13:25:28;4.65;;;1.83;;
70008;SDS011;59542;37.950;-122.338;2022-08-19T13:27:54;4.43;;;1.95;;
70008;SDS011;59542;37.950;-122.338;2022-08-19T13:30:20;2.55;;;1.48;;
70008;SDS011;59542;37.950;-122.338;2022-08-19T13:33:05;1.88;;;1.67;;
70008;SDS011;59542;37.950;-122.338;2022-08-19T13:35:37;1.85;;;1.50;;
70008;SDS011;59542;37.950;-122.338;2022-08-19T13:38:04;3.05;;;1.70;;
70008;SDS011;59542;37.950;-122.338;2022-08-19T13:40:31;3.28;;;1.77;;
70008;SDS011;59542;37.950;-122.338;2022-08-19T13:43:01;5.32;;;1.80;;
70008;SDS011;59542;37.950;-122.338;2022-08-19T13:45:30;3.63;;;1.70;;
70008;SDS011;59542;37.950;-122.338;2022-08-19T13:48:01;2.83;;;1.70;;
70008;SDS011;59542;37.950;-122.338;2022-08-19T13:50:34;5.22;;;2.85;;
70008;SDS011;59542;37.950;-122.338;2022-08-19T13:53:06;2.97;;;2.67;;
70008;SDS011;59542;37.950;-122.338;2022-08-19T13:55:33;3.70;;;2.95;;
70008;SDS011;59542;37.950;-122.338;2022-08-19T13:58:01;4.45;;;3.13;;
70008;SDS011;59542;37.950;-122.338;2022-08-19T14:00:29;4.47;;;3.20;;
70008;SDS011;59542;37.950;-122.338;2022-08-19T14:03:01;3.00;;;2.60;;
70008;SDS011;59542;37.950;-122.338;2022-08-19T14:05:28;2.50;;;2.17;;
70008;SDS011;59542;37.950;-122.338;2022-08-19T14:07:55;2.40;;;1.85;;
70008;SDS011;59542;37.950;-122.338;2022-08-19T14:10:22;2.25;;;2.00;;
70008;SDS011;59542;37.950;-122.338;2022-08-19T14:12:51;3.70;;;1.83;;
70008;SDS011;59542;37.950;-122.338;2022-08-19T14:15:20;2.92;;;2.10;;
70008;SDS011;59542;37.950;-122.338;2022-08-19T14:17:47;3.30;;;2.15;;
70008;SDS011;59542;37.950;-122.338;2022-08-19T14:20:14;3.58;;;2.15;;
70008;SDS011;59542;37.950;-122.338;2022-08-19T14:22:41;2.90;;;1.67;;
70008;SDS011;59542;37.950;-122.338;2022-08-19T14:25:09;2.83;;;1.60;;
70008;SDS011;59542;37.950;-122.338;2022-08-19T14:27:38;4.13;;;2.28;;